Time;durP1;ratioP1;P1;durP2;ratioP2;P2;SDS_P1;SDS_P2;PMS_P1;PMS_P2;Temp;Humidity;BMP_temperature;BMP_pressure;BME280_temperature;BME280_humidity;BME280_pressure;Samples;Min_cycle;Max_cycle;Signal;HPM_P1;HPM_P2
2022/09/12 00:01:18;;;;;;;20.50;17.83;;;12.50;1.00;;;;;;5029607;28;20199;-67
2022/09/12 00:03:45;;;;;;;23.43;17.17;;;12.40;1.00;;;;;;5046768;28;20199;-68
2022/09/12 00:06:17;;;;;;;19.27;16.63;;;12.40;1.00;;;;;;5028912;28;20194;-67
2022/09/12 00:09:09;;;;;;;18.50;16.07;;;12.30;1.00;;;;;;5046491;28;20286;-67
2022/09/12 00:11:41;;;;;;;18.30;15.37;;;12.30;99.90;;;;;;5045135;28;20246;-67
2022/09/12 00:14:12;;;;;;;16.43;14.67;;;12.20;99.90;;;;;;5029124;28;20243;-67
2022/09/12 00:16:40;;;;;;;18.67;15.93;;;12.20;99.90;;;;;;5043809;28;20362;-67
2022/09/12 00:19:07;;;;;;;21.23;16.73;;;12.10;99.90;;;;;;5047433;28;20215;-67
2022/09/12 00:21:37;;;;;;;20.03;15.97;;;12.10;99.90;;;;;;5044474;28;20195;-67
2022/09/12 00:24:05;;;;;;;22.87;17.13;;;12.10;99.90;;;;;;5045389;28;20203;-68
2022/09/12 00:26:31;;;;;;;21.70;16.80;;;12.10;99.90;;;;;;5042970;28;20749;-67
2022/09/12 00:28:58;;;;;;;22.70;18.10;;;12.00;99.90;;;;;;5043943;28;20203;-67
2022/09/12 00:31:26;;;;;;;18.83;16.67;;;12.00;99.90;;;;;;5044315;28;20202;-67
2022/09/12 00:33:56;;;;;;;20.77;16.80;;;12.00;99.90;;;;;;5045566;28;20198;-67
2022/09/12 00:36:24;;;;;;;22.97;16.87;;;11.90;99.90;;;;;;5045579;28;20214;-68
2022/09/12 00:38:52;;;;;;;23.80;16.77;;;12.00;99.90;;;;;;5046096;28;20202;-67
2022/09/12 00:41:28;;;;;;;23.13;17.83;;;12.00;99.90;;;;;;5028519;28;20206;-68
2022/09/12 00:43:58;;;;;;;25.43;19.03;;;12.00;99.90;;;;;;5045001;28;20712;-67
2022/09/12 00:46:25;;;;;;;22.10;17.30;;;12.00;99.90;;;;;;5027139;28;20610;-67
2022/09/12 00:49:00;;;;;;;20.33;17.30;;;12.00;99.90;;;;;;5044978;28;20222;-67
2022/09/12 00:51:29;;;;;;;21.33;18.10;;;11.90;99.90;;;;;;5047262;28;20205;-67
2022/09/12 00:53:58;;;;;;;22.77;17.10;;;11.90;99.90;;;;;;5049070;28;20188;-68
2022/09/12 00:56:26;;;;;;;20.57;16.07;;;11.90;99.90;;;;;;5045143;28;20203;-67
2022/09/12 00:59:04;;;;;;;18.70;15.67;;;11.90;99.90;;;;;;5045961;28;20563;-67
2022/09/12 01:01:31;;;;;;;19.20;14.97;;;11.90;99.90;;;;;;5043292;28;20202;-67
2022/09/12 01:03:59;;;;;;;21.67;15.43;;;11.80;99.90;;;;;;5040914;28;20226;-67
2022/09/12 01:06:34;;;;;;;18.90;13.70;;;12.00;1.00;;;;;;5026946;28;20210;-66
2022/09/12 01:09:03;;;;;;;17.27;14.03;;;12.20;1.00;;;;;;5044977;28;20217;-67
2022/09/12 01:11:35;;;;;;;16.93;12.67;;;12.40;1.00;;;;;;5040173;28;20623;-67
2022/09/12 01:14:05;;;;;;;15.00;12.47;;;12.90;99.90;;;;;;5046481;28;20310;-67
2022/09/12 01:16:35;;;;;;;13.70;11.30;;;13.20;1.00;;;;;;5045422;28;20242;-67
2022/09/12 01:19:24;;;;;;;13.03;9.67;;;13.20;99.90;;;;;;5043299;28;20276;-67
2022/09/12 01:22:27;;;;;;;14.17;12.30;;;13.00;99.90;;;;;;5037795;28;20211;-67
2022/09/12 01:25:08;;;;;;;13.63;11.40;;;12.90;1.00;;;;;;5023005;28;20214;-67
2022/09/12 01:28:10;;;;;;;12.27;10.93;;;12.60;99.90;;;;;;5043181;28;20210;-68
2022/09/12 01:31:00;;;;;;;13.37;11.97;;;12.60;1.00;;;;;;5026406;28;20737;-67
2022/09/12 01:33:33;;;;;;;12.03;10.77;;;12.70;1.00;;;;;;5037602;28;20221;-68
2022/09/12 01:36:33;;;;;;;12.17;10.53;;;12.80;1.00;;;;;;5043786;28;20527;-68
2022/09/12 01:39:02;;;;;;;11.23;10.13;;;13.00;1.00;;;;;;5040696;28;20237;-68
2022/09/12 01:41:50;;;;;;;12.37;11.17;;;13.30;1.00;;;;;;5042385;28;20681;-68
2022/09/12 01:44:30;;;;;;;13.10;8.97;;;13.20;1.00;;;;;;5046212;28;20198;-68
2022/09/12 01:47:20;;;;;;;11.97;10.73;;;13.20;1.00;;;;;;5042962;28;20186;-67
2022/09/12 01:50:08;;;;;;;12.13;10.20;;;13.20;1.00;;;;;;5003630;28;20663;-68
2022/09/12 01:52:49;;;;;;;12.93;10.43;;;13.00;1.00;;;;;;5026700;28;20197;-68
2022/09/12 01:55:30;;;;;;;11.60;10.40;;;12.90;1.00;;;;;;5023263;28;20195;-67
2022/09/12 01:58:13;;;;;;;11.10;9.50;;;12.70;1.00;;;;;;5026751;28;20629;-67
2022/09/12 02:01:01;;;;;;;13.90;10.30;;;12.90;76.90;;;;;;5039813;28;20195;-67
2022/09/12 02:03:43;;;;;;;10.60;9.57;;;13.00;1.00;;;;;;5038448;28;20280;-67
2022/09/12 02:06:25;;;;;;;9.83;8.83;;;13.00;1.00;;;;;;5039519;28;20196;-66
2022/09/12 02:08:57;;;;;;;10.47;9.37;;;12.90;1.00;;;;;;5047071;28;20191;-66
2022/09/12 02:11:24;;;;;;;11.30;9.73;;;12.90;1.00;;;;;;5045590;28;20195;-66
2022/09/12 02:14:23;;;;;;;12.07;9.27;;;12.70;1.00;;;;;;5031731;28;20262;-67
2022/09/12 02:17:15;;;;;;;10.93;9.77;;;12.70;1.00;;;;;;5032582;28;20259;-67
2022/09/12 02:19:55;;;;;;;10.68;9.57;;;12.60;1.00;;;;;;5042688;28;20223;-67
2022/09/12 02:22:25;;;;;;;10.00;8.93;;;12.50;1.00;;;;;;5044404;28;20199;-67
2022/09/12 02:24:58;;;;;;;9.70;8.70;;;12.50;1.00;;;;;;5036570;28;20226;-66
2022/09/12 02:27:43;;;;;;;10.83;8.90;;;12.50;1.00;;;;;;5044837;28;20195;-67
2022/09/12 02:30:13;;;;;;;10.57;9.47;;;12.50;1.00;;;;;;5028989;28;20204;-66
2022/09/12 02:32:52;;;;;;;10.13;8.80;;;12.50;1.00;;;;;;5029224;28;20199;-67
2022/09/12 02:35:52;;;;;;;9.87;8.87;;;12.40;1.00;;;;;;5028642;28;20213;-67
2022/09/12 02:38:45;;;;;;;9.63;8.63;;;12.10;1.00;;;;;;5045185;28;20192;-67
2022/09/12 02:41:16;;;;;;;9.40;8.30;;;11.80;1.00;;;;;;5042920;28;20199;-67
2022/09/12 02:43:43;;;;;;;9.07;8.17;;;11.70;99.90;;;;;;5030033;28;20690;-67
2022/09/12 02:46:19;;;;;;;9.33;8.43;;;11.90;99.90;;;;;;5029065;28;20294;-67
2022/09/12 02:48:46;;;;;;;9.73;8.77;;;12.10;1.00;;;;;;5047025;28;20245;-67
2022/09/12 02:51:14;;;;;;;9.60;8.60;;;12.40;1.00;;;;;;5046182;28;20206;-66
2022/09/12 02:53:41;;;;;;;10.20;9.03;;;12.50;1.00;;;;;;5046424;28;20667;-65
2022/09/12 02:56:15;;;;;;;10.37;9.23;;;12.50;99.90;;;;;;5026757;28;20572;-65
2022/09/12 02:58:43;;;;;;;8.30;7.50;;;12.40;99.90;;;;;;5044447;28;20686;-63
2022/09/12 03:01:48;;;;;;;9.47;8.57;;;12.50;1.00;;;;;;5046073;28;20279;-64
2022/09/12 03:04:42;;;;;;;13.10;9.67;;;12.70;99.90;;;;;;5042066;28;20187;-64
2022/09/12 03:07:42;;;;;;;10.77;9.67;;;12.00;1.00;;;;;;5026119;28;20192;-64
2022/09/12 03:10:22;;;;;;;10.13;9.10;;;11.70;99.90;;;;;;5026030;28;20795;-63
2022/09/12 03:12:55;;;;;;;11.00;9.70;;;11.90;99.90;;;;;;5041292;28;20630;-62
2022/09/12 03:15:44;;;;;;;12.97;8.90;;;12.10;80.10;;;;;;5044097;28;20226;-63
2022/09/12 03:18:42;;;;;;;11.97;9.03;;;12.20;1.00;;;;;;5044321;28;20200;-64
2022/09/12 03:21:19;;;;;;;11.40;8.97;;;12.20;1.00;;;;;;5046959;28;20207;-65
2022/09/12 03:24:06;;;;;;;9.50;8.60;;;12.40;1.00;;;;;;5046260;28;20662;-64
2022/09/12 03:27:00;;;;;;;13.13;8.07;;;12.70;1.00;;;;;;5042489;28;20202;-64
2022/09/12 03:29:29;;;;;;;9.67;8.67;;;12.90;99.90;;;;;;5046828;28;20678;-63
2022/09/12 03:31:57;;;;;;;12.27;8.83;;;12.90;99.90;;;;;;5046117;28;20272;-64
2022/09/12 03:34:26;;;;;;;10.20;8.67;;;13.00;99.90;;;;;;5044197;28;20195;-63
2022/09/12 03:36:54;;;;;;;9.80;8.90;;;13.10;99.90;;;;;;5044644;28;20194;-64
2022/09/12 03:39:23;;;;;;;10.17;8.80;;;12.80;1.00;;;;;;5045175;28;20221;-63
2022/09/12 03:41:50;;;;;;;11.07;9.97;;;12.40;99.90;;;;;;5029061;28;20287;-65
2022/09/12 03:44:18;;;;;;;11.43;10.00;;;12.30;99.90;;;;;;5043215;28;20195;-63
2022/09/12 03:46:46;;;;;;;14.87;11.87;;;12.30;1.00;;;;;;5045286;28;20288;-64
2022/09/12 03:49:13;;;;;;;11.90;9.70;;;12.40;1.00;;;;;;5045679;28;20206;-64
2022/09/12 03:51:41;;;;;;;10.73;9.73;;;12.30;1.00;;;;;;5041926;28;20578;-64
2022/09/12 03:54:09;;;;;;;10.23;9.23;;;12.50;1.00;;;;;;5042329;28;20203;-64
2022/09/12 03:56:37;;;;;;;9.47;8.57;;;12.70;1.00;;;;;;5040406;28;20199;-64
2022/09/12 03:59:05;;;;;;;11.83;10.70;;;12.90;99.90;;;;;;5041420;28;20207;-65
2022/09/12 04:01:32;;;;;;;12.23;10.97;;;12.70;2.60;;;;;;5040603;28;20201;-65
2022/09/12 04:03:59;;;;;;;12.07;10.27;;;12.50;99.90;;;;;;5026022;28;20199;-64
2022/09/12 04:06:26;;;;;;;14.50;11.47;;;12.60;99.90;;;;;;5038325;28;20224;-64
2022/09/12 04:08:55;;;;;;;11.47;10.23;;;12.60;99.90;;;;;;5025264;28;20204;-63
2022/09/12 04:11:22;;;;;;;22.50;20.10;;;12.80;99.90;;;;;;5042604;28;20246;-63
2022/09/12 04:13:49;;;;;;;25.33;22.70;;;13.00;1.00;;;;;;5042583;28;20246;-62
2022/09/12 04:16:17;;;;;;;31.33;28.03;;;12.80;1.00;;;;;;5039318;28;20220;-64
2022/09/12 04:18:45;;;;;;;15.37;12.37;;;12.70;99.90;;;;;;5024087;28;20223;-63
2022/09/12 04:21:15;;;;;;;19.17;17.23;;;12.50;99.90;;;;;;5041946;28;20195;-62
2022/09/12 04:23:45;;;;;;;13.17;11.83;;;12.20;99.90;;;;;;5043489;28;20199;-62
2022/09/12 04:26:14;;;;;;;16.80;14.60;;;12.10;1.00;;;;;;5043077;28;20227;-64
2022/09/12 04:28:41;;;;;;;18.63;16.70;;;11.90;1.00;;;;;;5041177;28;20191;-63
2022/09/12 04:31:12;;;;;;;26.57;23.80;;;11.80;99.90;;;;;;5037359;28;20242;-63
2022/09/12 04:33:39;;;;;;;13.80;12.27;;;11.80;99.90;;;;;;5022710;28;20197;-64
2022/09/12 04:36:13;;;;;;;12.93;11.63;;;12.00;98.80;;;;;;5025774;28;21372;-63
2022/09/12 04:38:40;;;;;;;13.83;12.43;;;11.80;1.00;;;;;;5043912;28;20190;-65
2022/09/12 04:41:24;;;;;;;14.10;12.70;;;11.50;99.90;;;;;;5037927;28;20196;-63
2022/09/12 04:43:54;;;;;;;16.57;13.47;;;11.30;1.00;;;;;;5040146;28;20210;-64
2022/09/12 04:46:21;;;;;;;16.70;14.90;;;11.10;1.00;;;;;;5042286;28;20306;-62
2022/09/12 04:48:48;;;;;;;18.17;15.00;;;11.00;1.00;;;;;;5044342;28;20277;-64
2022/09/12 04:51:24;;;;;;;18.60;15.83;;;11.00;99.90;;;;;;5028991;28;21507;-64
2022/09/12 04:53:53;;;;;;;22.47;18.07;;;10.90;99.90;;;;;;5039540;28;20198;-63
2022/09/12 04:56:21;;;;;;;24.43;20.57;;;10.90;1.00;;;;;;5039137;28;20247;-64
2022/09/12 04:58:49;;;;;;;21.57;17.90;;;11.50;99.90;;;;;;5024838;28;20222;-63
2022/09/12 05:01:19;;;;;;;16.23;14.47;;;12.00;1.00;;;;;;5018412;28;20207;-64
2022/09/12 05:03:47;;;;;;;14.03;11.53;;;12.10;1.00;;;;;;5037206;28;20192;-63
2022/09/12 05:06:17;;;;;;;13.77;12.27;;;12.30;99.90;;;;;;5043800;28;20883;-64
2022/09/12 05:08:45;;;;;;;11.40;10.20;;;12.50;1.00;;;;;;5025834;28;20192;-64
2022/09/12 05:11:15;;;;;;;10.40;9.40;;;12.70;1.00;;;;;;5043371;28;20196;-63
2022/09/12 05:13:46;;;;;;;12.13;9.93;;;12.80;99.90;;;;;;5043407;28;20281;-64
2022/09/12 05:16:15;;;;;;;9.80;8.80;;;12.80;1.00;;;;;;5027311;28;20219;-64
2022/09/12 05:18:44;;;;;;;11.37;8.13;;;12.80;1.00;;;;;;5025057;28;20196;-63
2022/09/12 05:21:13;;;;;;;12.60;10.27;;;13.00;1.00;;;;;;5043418;28;20223;-63
2022/09/12 05:23:41;;;;;;;10.43;9.03;;;13.10;1.00;;;;;;5040704;28;20294;-64
2022/09/12 05:26:12;;;;;;;10.80;9.77;;;13.10;1.00;;;;;;5042423;28;20606;-64
2022/09/12 05:28:39;;;;;;;11.03;9.60;;;13.30;1.00;;;;;;5040831;28;20194;-64
2022/09/12 05:31:10;;;;;;;9.50;8.60;;;13.30;1.00;;;;;;5041061;28;20218;-62
2022/09/12 05:33:38;;;;;;;12.07;9.93;;;13.30;1.00;;;;;;5023295;28;20195;-63
2022/09/12 05:36:08;;;;;;;13.50;9.20;;;13.30;1.00;;;;;;5043359;28;20192;-64
2022/09/12 05:38:36;;;;;;;11.37;10.17;;;13.00;1.00;;;;;;5037343;28;20278;-62
2022/09/12 05:41:07;;;;;;;9.47;8.57;;;12.90;1.00;;;;;;5042713;28;20247;-63
2022/09/12 05:43:41;;;;;;;11.13;9.60;;;13.10;1.00;;;;;;5046811;28;20272;-63
2022/09/12 05:46:14;;;;;;;9.60;8.67;;;13.30;1.00;;;;;;5046211;28;20237;-62
2022/09/12 05:48:43;;;;;;;9.83;8.83;;;13.50;1.00;;;;;;5029287;28;20203;-64
2022/09/12 05:51:18;;;;;;;10.90;8.27;;;13.70;99.90;;;;;;5046624;28;20273;-64
2022/09/12 05:53:51;;;;;;;10.50;9.20;;;14.00;99.90;;;;;;5040973;28;20195;-63
2022/09/12 05:56:22;;;;;;;9.48;8.57;;;15.30;1.00;;;;;;5040685;28;20195;-64
2022/09/12 05:58:57;;;;;;;11.00;7.90;;;16.90;99.90;;;;;;5041586;28;20214;-63
2022/09/12 06:01:26;;;;;;;8.93;8.05;;;17.70;99.90;;;;;;5042575;28;20207;-63
2022/09/12 06:03:55;;;;;;;9.02;7.85;;;18.20;99.90;;;;;;5041910;28;20278;-65
2022/09/12 06:06:24;;;;;;;8.73;6.88;;;18.80;99.90;;;;;;5027231;28;20290;-64
2022/09/12 06:08:53;;;;;;;9.32;7.38;;;19.60;80.80;;;;;;5044866;28;20202;-64
2022/09/12 06:11:22;;;;;;;7.85;7.10;;;20.40;23.30;;;;;;5046974;28;20685;-64
2022/09/12 06:13:50;;;;;;;10.65;7.22;;;20.50;1.00;;;;;;5048424;28;20239;-65
2022/09/12 06:16:19;;;;;;;8.27;7.47;;;19.60;7.30;;;;;;5029044;28;20211;-64
2022/09/12 06:18:48;;;;;;;10.18;7.28;;;20.10;1.00;;;;;;5048442;28;20188;-65
2022/09/12 06:21:16;;;;;;;8.25;7.45;;;20.70;1.00;;;;;;5049713;28;20299;-64
2022/09/12 06:23:45;;;;;;;7.57;6.88;;;21.10;1.00;;;;;;5032241;28;20195;-63
2022/09/12 06:26:12;;;;;;;7.65;6.65;;;21.60;1.00;;;;;;5047522;28;20192;-63
2022/09/12 06:28:41;;;;;;;7.22;6.50;;;21.70;1.00;;;;;;5047517;28;20201;-64
2022/09/12 06:31:14;;;;;;;7.95;6.93;;;22.20;1.00;;;;;;5047155;28;20210;-64
2022/09/12 06:33:45;;;;;;;8.88;6.30;;;22.00;1.00;;;;;;5035567;28;20253;-65
2022/09/12 06:36:15;;;;;;;6.47;5.88;;;22.20;1.00;;;;;;5011498;28;20342;-62
2022/09/12 06:38:42;;;;;;;7.75;6.45;;;23.60;1.00;;;;;;5047296;28;20730;-64
2022/09/12 06:41:11;;;;;;;7.25;6.55;;;23.80;1.00;;;;;;5030017;28;20211;-64
2022/09/12 06:43:40;;;;;;;8.90;6.47;;;24.50;1.00;;;;;;5024242;28;20289;-64
2022/09/12 06:46:08;;;;;;;6.75;5.65;;;24.90;1.00;;;;;;5040426;28;20619;-65
2022/09/12 06:48:35;;;;;;;7.28;5.40;;;26.30;1.00;;;;;;5026604;28;20647;-63
2022/09/12 06:51:16;;;;;;;6.72;5.57;;;26.30;1.00;;;;;;5041206;28;20191;-62
2022/09/12 06:53:44;;;;;;;6.70;5.53;;;26.10;1.00;;;;;;5040357;28;20230;-63
2022/09/12 06:56:14;;;;;;;6.72;6.00;;;26.20;1.00;;;;;;5040692;28;20200;-63
2022/09/12 06:58:42;;;;;;;8.07;5.60;;;26.50;1.00;;;;;;5025219;28;20566;-63
2022/09/12 07:01:13;;;;;;;6.30;5.13;;;27.50;1.00;;;;;;5040946;28;20208;-65
2022/09/12 07:03:41;;;;;;;6.60;5.57;;;28.10;1.00;;;;;;5039093;28;20276;-63
2022/09/12 07:06:11;;;;;;;7.07;6.07;;;27.50;1.00;;;;;;5039858;28;20702;-64
2022/09/12 07:08:39;;;;;;;5.63;5.13;;;26.30;1.00;;;;;;5025375;28;20290;-64
2022/09/12 07:11:11;;;;;;;6.43;5.82;;;26.80;1.00;;;;;;5043506;28;20219;-63
2022/09/12 07:13:39;;;;;;;6.65;5.32;;;26.60;1.00;;;;;;5026261;28;20247;-64
2022/09/12 07:16:06;;;;;;;8.10;5.50;;;26.50;1.00;;;;;;5041670;28;20289;-63
2022/09/12 07:18:34;;;;;;;5.82;5.32;;;27.50;1.00;;;;;;5025829;28;20709;-64
2022/09/12 07:21:02;;;;;;;6.28;5.35;;;29.10;1.00;;;;;;5026248;28;20208;-61
2022/09/12 07:23:29;;;;;;;6.47;4.97;;;29.80;1.00;;;;;;5041479;28;20199;-63
2022/09/12 07:25:58;;;;;;;5.53;4.63;;;30.40;1.00;;;;;;5040900;28;20203;-64
2022/09/12 07:28:28;;;;;;;6.22;5.53;;;30.10;1.00;;;;;;5038790;28;20191;-63
2022/09/12 07:30:55;;;;;;;8.77;5.47;;;26.70;1.00;;;;;;5042169;28;20204;-62
2022/09/12 07:33:27;;;;;;;6.22;5.63;;;23.90;1.00;;;;;;5043086;28;20196;-64
2022/09/12 07:35:54;;;;;;;8.00;6.15;;;22.00;1.00;;;;;;5042889;28;20353;-63
2022/09/12 07:38:21;;;;;;;7.72;6.03;;;22.00;1.00;;;;;;5040843;28;20522;-63
2022/09/12 07:40:49;;;;;;;6.68;6.07;;;22.00;1.00;;;;;;5043669;28;20218;-63
2022/09/12 07:43:16;;;;;;;6.72;6.13;;;22.20;1.00;;;;;;5026176;28;20273;-63
2022/09/12 07:45:43;;;;;;;9.20;6.38;;;22.20;1.00;;;;;;5042415;28;20191;-64
2022/09/12 07:48:10;;;;;;;6.43;5.82;;;22.70;1.00;;;;;;5040318;28;20199;-62
2022/09/12 07:50:36;;;;;;;7.30;6.55;;;22.20;1.00;;;;;;5042339;28;20278;-62
2022/09/12 07:53:09;;;;;;;8.30;6.22;;;22.30;1.00;;;;;;5041403;28;20287;-63
2022/09/12 07:55:36;;;;;;;7.05;6.35;;;23.80;1.00;;;;;;5043628;28;20213;-62
2022/09/12 07:58:03;;;;;;;7.30;6.60;;;23.60;1.00;;;;;;5039839;28;20689;-63
2022/09/12 08:00:34;;;;;;;9.90;7.32;;;22.40;1.00;;;;;;5042209;28;20744;-62
2022/09/12 08:03:02;;;;;;;8.75;6.57;;;21.80;1.00;;;;;;5043286;28;20534;-62
2022/09/12 08:05:29;;;;;;;9.82;7.30;;;21.40;5.80;;;;;;5042778;28;20195;-63
2022/09/12 08:07:56;;;;;;;8.70;7.20;;;20.90;36.00;;;;;;5042349;28;21642;-62
2022/09/12 08:10:23;;;;;;;8.45;7.65;;;20.80;65.90;;;;;;5045176;28;20266;-62
2022/09/12 08:12:50;;;;;;;9.88;7.68;;;20.20;98.60;;;;;;5044564;28;20278;-61
2022/09/12 08:15:18;;;;;;;9.02;8.15;;;19.40;99.90;;;;;;5041899;28;20231;-63
2022/09/12 08:17:45;;;;;;;10.50;8.77;;;19.50;99.90;;;;;;5043487;28;20195;-61
2022/09/12 08:20:12;;;;;;;9.63;8.07;;;19.00;99.90;;;;;;5043862;28;20570;-61
2022/09/12 08:22:39;;;;;;;8.95;7.53;;;18.90;99.90;;;;;;5044609;28;20214;-62
2022/09/12 08:25:07;;;;;;;11.32;8.45;;;18.90;99.90;;;;;;5042675;28;20208;-62
2022/09/12 08:27:34;;;;;;;9.02;8.18;;;19.40;99.90;;;;;;5041667;28;21177;-62
2022/09/12 08:30:01;;;;;;;9.80;8.00;;;19.50;99.90;;;;;;5038905;28;20192;-62
2022/09/12 08:32:28;;;;;;;13.88;8.40;;;19.70;99.90;;;;;;5041975;28;20205;-61
2022/09/12 08:34:55;;;;;;;9.15;8.25;;;20.10;99.90;;;;;;5041638;28;20198;-63
2022/09/12 08:37:22;;;;;;;9.90;8.85;;;19.90;99.90;;;;;;5025647;28;20219;-62
2022/09/12 08:39:49;;;;;;;9.30;8.30;;;20.10;99.90;;;;;;5043996;28;20577;-62
2022/09/12 08:42:35;;;;;;;10.25;7.88;;;19.70;99.90;;;;;;5024245;28;20221;-60
2022/09/12 08:45:18;;;;;;;10.88;8.57;;;20.40;99.90;;;;;;5044413;28;20223;-62
2022/09/12 08:47:46;;;;;;;9.07;7.38;;;21.20;99.90;;;;;;5042489;28;20191;-62
2022/09/12 08:50:17;;;;;;;10.57;8.35;;;21.20;98.00;;;;;;5041284;28;20199;-62
2022/09/12 08:53:02;;;;;;;12.23;8.73;;;21.10;99.90;;;;;;5040070;28;20206;-62
2022/09/12 08:56:07;;;;;;;11.68;8.88;;;21.70;87.10;;;;;;5042212;28;20196;-62
2022/09/12 08:58:39;;;;;;;9.77;8.38;;;21.80;74.60;;;;;;4962444;28;20236;-61
2022/09/12 09:01:25;;;;;;;9.13;7.97;;;22.60;43.40;;;;;;5033280;28;20733;-64
2022/09/12 09:04:04;;;;;;;11.10;8.68;;;22.80;25.30;;;;;;5039559;28;20195;-63
2022/09/12 09:06:49;;;;;;;8.63;7.72;;;23.30;8.60;;;;;;5041623;28;20298;-61
2022/09/12 09:09:38;;;;;;;9.02;8.13;;;23.30;5.30;;;;;;5047238;28;20183;-62
2022/09/12 09:12:25;;;;;;;10.25;8.57;;;22.30;19.40;;;;;;5041770;28;20204;-60
2022/09/12 09:15:23;;;;;;;11.75;8.35;;;22.40;32.30;;;;;;5041603;28;20251;-61
2022/09/12 09:18:07;;;;;;;8.98;8.07;;;22.20;45.70;;;;;;5049520;28;20231;-61
2022/09/12 09:20:59;;;;;;;10.55;8.63;;;22.20;55.30;;;;;;5045072;28;20285;-63
2022/09/12 09:23:29;;;;;;;10.07;8.52;;;21.60;99.90;;;;;;5048200;28;20195;-62
2022/09/12 09:26:21;;;;;;;10.68;9.57;;;21.10;99.90;;;;;;5044224;28;20202;-61
2022/09/12 09:28:52;;;;;;;10.07;9.05;;;20.60;99.90;;;;;;5044162;28;20192;-62
2022/09/12 09:31:21;;;;;;;10.90;8.20;;;21.40;99.90;;;;;;5042479;28;20726;-62
2022/09/12 09:33:51;;;;;;;8.48;7.18;;;23.20;61.20;;;;;;5046810;28;20203;-62
2022/09/12 09:36:40;;;;;;;10.52;8.20;;;25.20;6.20;;;;;;5047022;28;20297;-62
2022/09/12 09:39:39;;;;;;;9.35;7.95;;;26.10;1.00;;;;;;5046415;28;20208;-62
2022/09/12 09:42:32;;;;;;;10.95;7.20;;;26.80;1.00;;;;;;5026507;28;20239;-63
2022/09/12 09:45:10;;;;;;;11.55;7.82;;;27.80;1.00;;;;;;5040597;28;20203;-62
2022/09/12 09:47:36;;;;;;;8.60;7.70;;;27.20;1.00;;;;;;5042950;28;20687;-67
2022/09/12 09:50:05;;;;;;;9.50;8.50;;;27.70;1.00;;;;;;5044181;28;20651;-62
2022/09/12 09:52:34;;;;;;;11.13;8.93;;;27.50;1.00;;;;;;5046010;28;20203;-63
2022/09/12 09:55:01;;;;;;;10.43;9.43;;;28.60;1.00;;;;;;5046938;28;20202;-61
2022/09/12 09:57:47;;;;;;;15.98;9.40;;;29.00;1.00;;;;;;5046232;28;20672;-63
2022/09/12 10:00:34;;;;;;;11.57;10.20;;;27.80;1.00;;;;;;5025670;28;20187;-65
2022/09/12 10:03:13;;;;;;;13.75;9.98;;;26.70;1.00;;;;;;5043222;28;20223;-64
2022/09/12 10:05:49;;;;;;;11.32;10.25;;;26.80;1.00;;;;;;5045432;28;20275;-62
2022/09/12 10:08:27;;;;;;;14.68;11.10;;;26.20;1.00;;;;;;5045466;28;20274;-62
2022/09/12 10:11:02;;;;;;;13.05;10.07;;;25.50;1.00;;;;;;5046434;28;20206;-62
2022/09/12 10:13:29;;;;;;;10.75;9.70;;;26.70;1.00;;;;;;5043428;28;20219;-61
2022/09/12 10:16:00;;;;;;;11.05;9.95;;;27.50;1.00;;;;;;5045806;28;20215;-63
2022/09/12 10:18:41;;;;;;;10.38;9.38;;;28.10;1.00;;;;;;5043820;28;20267;-63
2022/09/12 10:21:40;;;;;;;14.10;10.25;;;29.70;1.00;;;;;;5041063;28;20220;-63
2022/09/12 10:24:25;;;;;;;10.23;9.10;;;28.90;1.00;;;;;;5045389;28;20198;-62
2022/09/12 10:26:55;;;;;;;11.50;9.98;;;30.10;1.00;;;;;;5040945;28;20543;-62
2022/09/12 10:29:32;;;;;;;10.68;8.40;;;33.70;1.00;;;;;;5044344;28;20203;-62
2022/09/12 10:32:07;;;;;;;9.75;8.70;;;29.40;1.00;;;;;;5047086;28;20286;-65
2022/09/12 10:34:38;;;;;;;13.00;8.50;;;27.90;1.00;;;;;;5038189;28;20566;-62
2022/09/12 10:37:08;;;;;;;10.77;9.63;;;28.30;1.00;;;;;;5044904;28;20257;-61
2022/09/12 10:39:37;;;;;;;12.55;10.23;;;29.10;1.00;;;;;;5043599;28;20283;-63
2022/09/12 10:42:04;;;;;;;11.10;9.27;;;30.30;1.00;;;;;;5043168;28;23090;-62
2022/09/12 10:44:33;;;;;;;10.40;9.30;;;32.70;1.00;;;;;;5042932;28;20678;-62
2022/09/12 10:47:20;;;;;;;10.43;9.43;;;30.80;1.00;;;;;;5037616;28;20679;-62
2022/09/12 10:49:49;;;;;;;10.70;9.70;;;32.60;1.00;;;;;;5040212;28;20211;-61
2022/09/12 10:52:23;;;;;;;10.13;8.60;;;32.70;1.00;;;;;;5042769;28;20197;-60
2022/09/12 10:54:51;;;;;;;8.98;6.35;;;32.10;1.00;;;;;;5041170;28;20195;-61
2022/09/12 10:57:50;;;;;;;6.32;4.72;;;33.10;1.00;;;;;;5039013;28;20682;-59
2022/09/12 11:00:26;;;;;;;7.50;4.90;;;31.80;1.00;;;;;;5044826;28;20196;-61
2022/09/12 11:03:21;;;;;;;5.38;4.85;;;28.80;1.00;;;;;;5038685;28;20191;-61
2022/09/12 11:05:55;;;;;;;4.88;4.38;;;29.70;1.00;;;;;;5041373;28;20192;-60
2022/09/12 11:08:43;;;;;;;5.88;4.53;;;28.70;1.00;;;;;;5042483;28;20540;-61
2022/09/12 11:11:10;;;;;;;7.40;4.63;;;30.40;1.00;;;;;;5042090;28;20652;-61
2022/09/12 11:14:06;;;;;;;6.22;4.60;;;31.30;1.00;;;;;;5040697;28;20227;-60
2022/09/12 11:16:36;;;;;;;6.32;5.20;;;29.50;1.00;;;;;;5037982;28;20217;-60
2022/09/12 11:19:27;;;;;;;6.85;5.32;;;29.20;1.00;;;;;;5021579;28;20555;-61
2022/09/12 11:22:08;;;;;;;6.82;4.75;;;28.00;1.00;;;;;;5036275;28;20737;-62
2022/09/12 11:24:59;;;;;;;7.80;4.30;;;30.30;1.00;;;;;;5043645;28;20199;-61
2022/09/12 11:27:49;;;;;;;4.93;4.43;;;30.90;1.00;;;;;;5042288;28;20198;-61
2022/09/12 11:30:17;;;;;;;5.03;4.53;;;29.00;1.00;;;;;;5027243;28;20194;-61
2022/09/12 11:33:13;;;;;;;5.18;4.28;;;30.20;1.00;;;;;;5043451;28;20684;-62
2022/09/12 11:35:49;;;;;;;4.82;4.32;;;32.40;1.00;;;;;;5039108;28;20206;-61
2022/09/12 11:39:02;;;;;;;5.28;4.70;;;32.60;1.00;;;;;;5045102;28;20266;-62
2022/09/12 11:41:33;;;;;;;5.22;4.72;;;29.00;1.00;;;;;;5046129;28;20215;-62
2022/09/12 11:44:10;;;;;;;4.68;4.20;;;29.30;1.00;;;;;;5041798;28;20194;-62
2022/09/12 11:46:41;;;;;;;4.55;4.15;;;27.40;1.00;;;;;;5044075;28;20191;-61
2022/09/12 11:49:14;;;;;;;4.53;4.10;;;26.70;1.00;;;;;;5042864;28;20746;-60
2022/09/12 11:52:00;;;;;;;5.82;4.32;;;26.30;1.00;;;;;;5035385;28;20282;-63
2022/09/12 11:54:30;;;;;;;4.07;3.60;;;25.80;1.00;;;;;;5039256;28;20208;-61
2022/09/12 11:57:32;;;;;;;5.15;3.72;;;26.80;1.00;;;;;;5040744;28;20195;-62
2022/09/12 12:00:16;;;;;;;5.40;3.60;;;29.10;1.00;;;;;;5033351;28;20221;-63
2022/09/12 12:03:08;;;;;;;6.10;3.80;;;29.50;1.00;;;;;;5033294;28;20221;-63
2022/09/12 12:06:04;;;;;;;3.55;3.20;;;29.20;1.00;;;;;;5038987;28;20636;-60
2022/09/12 12:08:38;;;;;;;4.15;2.78;;;28.00;1.00;;;;;;5041475;28;20194;-62
2022/09/12 12:11:06;;;;;;;3.67;3.33;;;27.30;1.00;;;;;;5041058;28;20672;-63
2022/09/12 12:13:49;;;;;;;3.40;2.97;;;28.20;1.00;;;;;;5040666;28;20329;-62
2022/09/12 12:16:28;;;;;;;3.53;3.20;;;27.90;1.00;;;;;;5037688;28;20227;-62
2022/09/12 12:18:57;;;;;;;3.45;2.95;;;28.90;1.00;;;;;;5041464;28;20722;-62
2022/09/12 12:21:30;;;;;;;6.65;5.25;;;29.30;1.00;;;;;;5021654;28;20341;-62
2022/09/12 12:24:06;;;;;;;4.38;3.58;;;29.10;1.00;;;;;;5040473;28;20963;-62
2022/09/12 12:26:56;;;;;;;4.63;4.22;;;28.00;1.00;;;;;;5037712;28;20196;-60
2022/09/12 12:29:23;;;;;;;6.00;5.35;;;27.80;1.00;;;;;;5043112;28;20199;-62
2022/09/12 12:32:02;;;;;;;6.28;3.78;;;27.30;1.00;;;;;;5043306;28;20207;-62
2022/09/12 12:34:42;;;;;;;5.63;3.80;;;26.70;1.00;;;;;;5045269;28;20274;-62
2022/09/12 12:37:18;;;;;;;6.78;3.80;;;26.80;1.00;;;;;;5042132;28;20191;-63
2022/09/12 12:39:52;;;;;;;3.90;3.50;;;27.10;1.00;;;;;;5037534;28;20197;-62
2022/09/12 12:42:34;;;;;;;4.10;3.22;;;28.10;1.00;;;;;;5040372;28;20208;-61
2022/09/12 12:45:23;;;;;;;4.22;3.15;;;28.80;1.00;;;;;;5040567;28;20675;-62
2022/09/12 12:47:54;;;;;;;4.20;3.15;;;28.20;1.00;;;;;;5045973;28;20241;-61
2022/09/12 12:50:27;;;;;;;3.42;3.13;;;27.50;1.00;;;;;;5040995;28;20253;-61
2022/09/12 12:52:59;;;;;;;5.32;2.65;;;26.10;1.00;;;;;;5045411;28;20209;-62
2022/09/12 12:55:30;;;;;;;3.47;2.95;;;26.10;1.00;;;;;;5043102;28;20209;-61
2022/09/12 12:58:00;;;;;;;3.50;3.20;;;26.20;1.00;;;;;;5041449;28;20714;-60
2022/09/12 13:00:34;;;;;;;5.03;3.30;;;26.60;1.00;;;;;;5043940;28;20613;-61
2022/09/12 13:03:07;;;;;;;3.42;3.10;;;26.00;1.00;;;;;;5045365;28;20576;-61
2022/09/12 13:05:52;;;;;;;3.90;3.00;;;25.50;1.00;;;;;;5038035;28;20195;-61
2022/09/12 13:08:19;;;;;;;3.85;3.50;;;26.10;1.00;;;;;;5040623;28;20566;-62
2022/09/12 13:11:01;;;;;;;5.05;3.72;;;26.70;1.00;;;;;;5042833;28;20197;-60
2022/09/12 13:14:03;;;;;;;4.20;3.13;;;26.50;1.00;;;;;;5043685;28;20237;-61
2022/09/12 13:16:39;;;;;;;5.40;3.42;;;26.00;1.00;;;;;;5037746;28;20230;-60
2022/09/12 13:19:21;;;;;;;3.85;3.20;;;25.70;1.00;;;;;;5039790;28;20217;-62
2022/09/12 13:21:58;;;;;;;5.30;3.65;;;25.90;1.00;;;;;;5039993;28;20286;-60
2022/09/12 13:24:25;;;;;;;4.60;3.35;;;25.40;1.00;;;;;;5044525;28;20662;-62